עמוד ראשי
METAR-TAF:

METAR-TAF

שדות תעופה :

Bisbee Douglas International Airport

Douglas / Bisbee, אריזונה, ארצות הברית

קו רוחב: 31-28-09N, קו אורך: 109-36-13W, גובה: 1266מטר

תצפית מזג אוויר נוכחית

הדו"ח נערך לפני 36דקות, בשעה 03:56 UTC
רוח 17קשר מכיוון צפון עם משבים עד 26קשר
טמפרטורת 31 צלסיוס
לחות 29%
לחץ 1024 hPa
ראות: 16.1קילומטר
שמיים נקיים

METAR: KDUG 250356Z AUTO 35017G26KT 10SM CLR 31/11 A3024 RMK AO2 PK WND 35026/0356 SLPNO T03060111

זמן: 21:32 (04:32 UTC)

תחזית

הדו"ח נערך לפני 5 שעות ו 9דקות, בשעה 23:23 UTC
תחזית בתוקף מ 25 ב 00 UTC עד 25 ב 24 UTC
רוח 6קשר מכיוון מערב/דרום-מערב
ראות: 10קילומטר
עננים פזורים בגובה 10000רגל
מ 25 ב 0300UTC
רוח 5קשר עם כיוונים משתנים
ראות: 10קילומטר
מעט עננים בגובה 10000רגל
מ 25 ב 2100UTC
רוח 11קשר מכיוון מזרח
ראות: 10קילומטר
עננים בינוניים בגובה 10000רגל

TAF: KDUG 242323Z 2500/2524 25006KT P6SM SCT100 FM250300 VRB05KT P6SM FEW100 FM252100 08011KT P6SM BKN100

תצפיות ותחזיות מזג אוויר לגבי יותר מ- 4,000 שדות תעופה ברחבי העולם. דוחות METAR ו- TAF.

התחנות הזמינות מסומנות בנקודות צהובות ואדומות על גבי המפה.

העבר את העכבר לנקודה הצבעונית על מנת לראות את שם התחנה.

לאחר מכן, לחץ כדי לראות את תוכן ואת תחזיות מזג האוויר.

כדי לשנות את המפה: לחץ על הכפתורים הירוקים עם הפלוס השחור כדי להתקרב; על הכפתור הירוק עם המקף כדי להתרחק; או בחיצים הירוקים למפות סמוכות.


METAR-TAF: